EWG4TV EDDL-LOWW
Flight info
| Callsign | EWG4TV |
|---|---|
| Flight time | 1h 18m |
| Altitude | 35000 |
| Route | DODEN1T DODEN Y853 BOMBI DCT ESATI DCT BARSU DCT EKSOS DCT LULAR DCT RUDAP DCT BUDEX |
| Aircraft | A319/M-SDE3FGHIRWY/LB1 |
Departure
| Time | 2026-05-01 13:07 |
|---|---|
| Airport | Düsseldorf Airport (EDDL) |
Arrival
| Time | 2026-05-01 14:26 |
|---|---|
| Airport | Vienna International Airport (LOWW) |
| Time | Latitude | Longitude | Altitude | Speed | Heading |
|---|---|---|---|---|---|
| 2026-05-01 12:36 | 51.27708 | 6.75920 | 131 ft | 0 kts | 91° |
| 2026-05-01 12:58 | 51.27708 | 6.75923 | 131 ft | 2 kts | 91° |
| 2026-05-01 12:58 | 51.27707 | 6.75967 | 131 ft | 6 kts | 91° |
| 2026-05-01 12:58 | 51.27733 | 6.76039 | 127 ft | 10 kts | 18° |
| 2026-05-01 12:59 | 51.27920 | 6.76047 | 131 ft | 17 kts | 1° |
| 2026-05-01 12:59 | 51.28028 | 6.76046 | 128 ft | 17 kts | 0° |
| 2026-05-01 12:59 | 51.28187 | 6.76140 | 128 ft | 17 kts | 53° |
| 2026-05-01 13:00 | 51.28365 | 6.76518 | 126 ft | 24 kts | 52° |
| 2026-05-01 13:00 | 51.28475 | 6.76748 | 125 ft | 28 kts | 52° |
| 2026-05-01 13:01 | 51.28676 | 6.77165 | 128 ft | 25 kts | 52° |
| 2026-05-01 13:01 | 51.28789 | 6.77405 | 126 ft | 29 kts | 53° |
| 2026-05-01 13:01 | 51.29013 | 6.77873 | 131 ft | 27 kts | 53° |
| 2026-05-01 13:02 | 51.29112 | 6.78084 | 133 ft | 15 kts | 53° |
| 2026-05-01 13:07 | 51.13112 | 6.73644 | 13012 ft | 320 kts | 90° |
| 2026-05-01 13:07 | 51.13248 | 6.77228 | 13653 ft | 333 kts | 88° |
| 2026-05-01 13:07 | 51.13421 | 6.80989 | 14495 ft | 339 kts | 88° |
| 2026-05-01 13:08 | 51.13593 | 6.84715 | 15302 ft | 344 kts | 88° |
| 2026-05-01 13:08 | 51.13761 | 6.88537 | 16128 ft | 348 kts | 88° |
| 2026-05-01 13:08 | 51.13917 | 6.92414 | 16953 ft | 352 kts | 89° |
| 2026-05-01 13:08 | 51.14062 | 6.96335 | 17765 ft | 357 kts | 89° |
| 2026-05-01 13:09 | 51.14204 | 7.00313 | 18596 ft | 362 kts | 89° |
| 2026-05-01 13:09 | 51.14344 | 7.04356 | 19321 ft | 366 kts | 89° |
| 2026-05-01 13:09 | 51.14485 | 7.08424 | 20081 ft | 369 kts | 88° |
| 2026-05-01 13:09 | 51.14628 | 7.12477 | 20819 ft | 373 kts | 88° |
| 2026-05-01 13:10 | 51.14774 | 7.16625 | 21562 ft | 377 kts | 88° |
| 2026-05-01 13:10 | 51.14918 | 7.20810 | 22275 ft | 380 kts | 87° |
| 2026-05-01 13:10 | 51.15059 | 7.25039 | 22997 ft | 383 kts | 87° |
| 2026-05-01 13:10 | 51.15201 | 7.29317 | 23723 ft | 387 kts | 87° |
| 2026-05-01 13:11 | 51.15296 | 7.32164 | 24131 ft | 390 kts | 87° |
| 2026-05-01 13:11 | 51.15388 | 7.36499 | 24704 ft | 393 kts | 91° |
| 2026-05-01 13:11 | 51.14789 | 7.42215 | 25438 ft | 399 kts | 106° |
| 2026-05-01 13:11 | 51.13692 | 7.46309 | 25983 ft | 405 kts | 118° |
| 2026-05-01 13:12 | 51.12080 | 7.50023 | 26517 ft | 410 kts | 129° |
| 2026-05-01 13:12 | 51.10759 | 7.52208 | 26873 ft | 414 kts | 135° |
| 2026-05-01 13:12 | 51.08665 | 7.55392 | 27411 ft | 418 kts | 135° |
| 2026-05-01 13:12 | 51.06551 | 7.58604 | 27920 ft | 422 kts | 135° |
| 2026-05-01 13:13 | 51.04418 | 7.61850 | 28438 ft | 426 kts | 134° |
| 2026-05-01 13:13 | 51.02268 | 7.65127 | 28955 ft | 430 kts | 134° |
| 2026-05-01 13:13 | 51.00127 | 7.68387 | 29460 ft | 434 kts | 134° |
| 2026-05-01 13:13 | 50.97926 | 7.71727 | 29965 ft | 438 kts | 135° |
| 2026-05-01 13:14 | 50.95526 | 7.74765 | 30447 ft | 444 kts | 144° |
| 2026-05-01 13:14 | 50.92896 | 7.77383 | 30860 ft | 448 kts | 147° |
| 2026-05-01 13:14 | 50.90226 | 7.80000 | 31275 ft | 451 kts | 147° |
| 2026-05-01 13:14 | 50.87574 | 7.82599 | 31685 ft | 454 kts | 147° |
| 2026-05-01 13:15 | 50.84872 | 7.85250 | 32088 ft | 458 kts | 147° |
| 2026-05-01 13:15 | 50.82162 | 7.87912 | 32635 ft | 457 kts | 148° |
| 2026-05-01 13:15 | 50.79453 | 7.90572 | 33228 ft | 456 kts | 148° |
| 2026-05-01 13:15 | 50.76762 | 7.93211 | 33818 ft | 455 kts | 148° |
| 2026-05-01 13:16 | 50.74106 | 7.95810 | 34390 ft | 454 kts | 148° |
| 2026-05-01 13:16 | 50.71418 | 7.98433 | 34920 ft | 453 kts | 148° |
| 2026-05-01 13:16 | 50.68737 | 8.01045 | 35243 ft | 452 kts | 148° |
| 2026-05-01 13:17 | 50.60818 | 8.08765 | 35353 ft | 443 kts | 146° |
| 2026-05-01 13:17 | 50.58379 | 8.11736 | 35352 ft | 442 kts | 140° |
| 2026-05-01 13:18 | 50.51292 | 8.21065 | 35343 ft | 442 kts | 140° |
| 2026-05-01 13:18 | 50.46582 | 8.27219 | 35340 ft | 443 kts | 140° |
| 2026-05-01 13:19 | 50.41835 | 8.33395 | 35332 ft | 442 kts | 140° |
| 2026-05-01 13:20 | 50.34719 | 8.42634 | 35321 ft | 442 kts | 140° |
| 2026-05-01 13:20 | 50.30009 | 8.48756 | 35323 ft | 442 kts | 140° |
| 2026-05-01 13:21 | 50.22877 | 8.57956 | 35319 ft | 442 kts | 140° |
| 2026-05-01 13:21 | 50.18111 | 8.64073 | 35320 ft | 442 kts | 140° |
| 2026-05-01 13:22 | 50.13382 | 8.70141 | 35315 ft | 443 kts | 140° |
| 2026-05-01 13:22 | 50.09010 | 8.76855 | 35319 ft | 441 kts | 124° |
| 2026-05-01 13:23 | 50.07467 | 8.80969 | 35320 ft | 439 kts | 113° |
| 2026-05-01 13:23 | 50.06437 | 8.85378 | 35318 ft | 437 kts | 103° |
| 2026-05-01 13:23 | 50.05930 | 8.90014 | 35322 ft | 435 kts | 92° |
| 2026-05-01 13:23 | 50.05921 | 8.94742 | 35323 ft | 433 kts | 86° |
| 2026-05-01 13:24 | 50.06084 | 9.04129 | 35323 ft | 434 kts | 86° |
| 2026-05-01 13:25 | 50.06247 | 9.18176 | 35329 ft | 435 kts | 91° |
| 2026-05-01 13:25 | 50.05354 | 9.27517 | 35333 ft | 436 kts | 98° |
| 2026-05-01 13:26 | 50.04286 | 9.36819 | 35335 ft | 436 kts | 98° |
| 2026-05-01 13:26 | 50.03228 | 9.46056 | 35341 ft | 436 kts | 98° |
| 2026-05-01 13:27 | 50.02156 | 9.55358 | 35344 ft | 436 kts | 98° |
| 2026-05-01 13:27 | 50.00550 | 9.69251 | 35324 ft | 438 kts | 98° |
| 2026-05-01 13:28 | 49.98898 | 9.83302 | 35328 ft | 441 kts | 98° |
| 2026-05-01 13:29 | 49.96653 | 10.02121 | 35333 ft | 445 kts | 99° |
| 2026-05-01 13:31 | 49.93209 | 10.30499 | 35355 ft | 447 kts | 99° |
| 2026-05-01 13:31 | 49.90762 | 10.44420 | 35366 ft | 449 kts | 110° |
| 2026-05-01 13:32 | 49.88422 | 10.53439 | 35374 ft | 449 kts | 110° |
| 2026-05-01 13:33 | 49.82611 | 10.75838 | 36211 ft | 448 kts | 110° |
| 2026-05-01 13:34 | 49.80272 | 10.84763 | 37190 ft | 446 kts | 110° |
| 2026-05-01 13:34 | 49.77944 | 10.93611 | 37367 ft | 445 kts | 110° |
| 2026-05-01 13:35 | 49.74433 | 11.06911 | 37363 ft | 444 kts | 110° |
| 2026-05-01 13:36 | 49.70935 | 11.20102 | 37364 ft | 444 kts | 110° |
| 2026-05-01 13:36 | 49.67406 | 11.33339 | 37376 ft | 444 kts | 110° |
| 2026-05-01 13:37 | 49.65087 | 11.42059 | 37365 ft | 435 kts | 108° |
| 2026-05-01 13:37 | 49.63148 | 11.50823 | 37390 ft | 427 kts | 104° |
| 2026-05-01 13:38 | 49.60592 | 11.63933 | 37408 ft | 425 kts | 104° |
| 2026-05-01 13:39 | 49.58813 | 11.72637 | 37410 ft | 425 kts | 105° |
| 2026-05-01 13:39 | 49.56993 | 11.81262 | 37419 ft | 425 kts | 105° |
| 2026-05-01 13:40 | 49.55148 | 11.89927 | 37421 ft | 425 kts | 105° |
| 2026-05-01 13:40 | 49.53308 | 11.98592 | 37421 ft | 425 kts | 105° |
| 2026-05-01 13:41 | 49.51469 | 12.07240 | 37412 ft | 422 kts | 105° |
| 2026-05-01 13:41 | 49.49674 | 12.15602 | 37406 ft | 410 kts | 105° |
| 2026-05-01 13:42 | 49.47894 | 12.23905 | 37403 ft | 408 kts | 105° |
| 2026-05-01 13:42 | 49.46114 | 12.32196 | 37393 ft | 407 kts | 105° |
| 2026-05-01 13:43 | 49.44341 | 12.40408 | 37394 ft | 407 kts | 105° |
| 2026-05-01 13:43 | 49.42549 | 12.48660 | 37397 ft | 407 kts | 105° |
| 2026-05-01 13:44 | 49.40751 | 12.56868 | 37400 ft | 407 kts | 105° |
| 2026-05-01 13:44 | 49.38944 | 12.65116 | 37401 ft | 407 kts | 105° |
| 2026-05-01 13:45 | 49.37138 | 12.73347 | 37402 ft | 406 kts | 105° |
| 2026-05-01 13:45 | 49.35290 | 12.81499 | 37403 ft | 407 kts | 107° |
| 2026-05-01 13:46 | 49.33282 | 12.89621 | 37406 ft | 407 kts | 108° |
| 2026-05-01 13:46 | 49.31257 | 12.97726 | 37406 ft | 406 kts | 107° |
| 2026-05-01 13:47 | 49.29266 | 13.05769 | 37410 ft | 406 kts | 107° |
| 2026-05-01 13:47 | 49.27268 | 13.13873 | 37409 ft | 406 kts | 107° |
| 2026-05-01 13:48 | 49.25262 | 13.21959 | 37405 ft | 406 kts | 107° |
| 2026-05-01 13:48 | 49.23238 | 13.30023 | 37409 ft | 406 kts | 108° |
| 2026-05-01 13:49 | 49.21111 | 13.37964 | 37405 ft | 406 kts | 109° |
| 2026-05-01 13:49 | 49.18927 | 13.45946 | 37405 ft | 406 kts | 108° |
| 2026-05-01 13:50 | 49.17548 | 13.54221 | 37404 ft | 400 kts | 95° |
| 2026-05-01 13:50 | 49.16687 | 13.62618 | 37406 ft | 399 kts | 95° |
| 2026-05-01 13:51 | 49.15839 | 13.70946 | 37411 ft | 399 kts | 95° |
| 2026-05-01 13:51 | 49.14978 | 13.79330 | 37406 ft | 399 kts | 95° |
| 2026-05-01 13:51 | 49.14244 | 13.83442 | 37389 ft | 407 kts | 111° |
| 2026-05-01 13:52 | 49.12667 | 13.87082 | 37380 ft | 416 kts | 130° |
| 2026-05-01 13:52 | 49.08080 | 13.92625 | 37373 ft | 423 kts | 140° |
| 2026-05-01 13:53 | 49.03315 | 13.97922 | 37372 ft | 424 kts | 140° |
| 2026-05-01 13:53 | 48.96187 | 14.05877 | 37373 ft | 423 kts | 134° |
| 2026-05-01 13:54 | 48.94267 | 14.09209 | 37387 ft | 419 kts | 118° |
| 2026-05-01 13:54 | 48.93028 | 14.13216 | 37389 ft | 419 kts | 102° |
| 2026-05-01 13:54 | 48.92586 | 14.17584 | 37386 ft | 418 kts | 86° |
| 2026-05-01 13:54 | 48.92950 | 14.21946 | 37387 ft | 415 kts | 73° |
| 2026-05-01 13:55 | 48.93460 | 14.30698 | 37385 ft | 427 kts | 93° |
| 2026-05-01 13:55 | 48.91658 | 14.39364 | 36810 ft | 436 kts | 114° |
| 2026-05-01 13:56 | 48.89973 | 14.43244 | 36193 ft | 442 kts | 123° |
| 2026-05-01 13:56 | 48.88085 | 14.46967 | 35500 ft | 444 kts | 123° |
| 2026-05-01 13:56 | 48.86200 | 14.50690 | 34783 ft | 445 kts | 122° |
| 2026-05-01 13:56 | 48.84334 | 14.54379 | 34024 ft | 446 kts | 122° |
| 2026-05-01 13:57 | 48.82439 | 14.58122 | 33133 ft | 447 kts | 122° |
| 2026-05-01 13:57 | 48.81178 | 14.60611 | 32579 ft | 448 kts | 122° |
| 2026-05-01 13:57 | 48.78643 | 14.65595 | 31744 ft | 442 kts | 122° |
| 2026-05-01 13:57 | 48.76768 | 14.69269 | 31125 ft | 438 kts | 122° |
| 2026-05-01 13:58 | 48.74927 | 14.72867 | 30529 ft | 435 kts | 122° |
| 2026-05-01 13:58 | 48.73081 | 14.76477 | 29835 ft | 431 kts | 122° |
| 2026-05-01 13:58 | 48.71252 | 14.80053 | 29161 ft | 425 kts | 122° |
| 2026-05-01 13:58 | 48.69449 | 14.83576 | 28364 ft | 419 kts | 122° |
| 2026-05-01 13:59 | 48.68269 | 14.85880 | 27853 ft | 415 kts | 122° |
| 2026-05-01 13:59 | 48.65937 | 14.90424 | 26846 ft | 407 kts | 122° |
| 2026-05-01 13:59 | 48.64204 | 14.93790 | 26098 ft | 402 kts | 122° |
| 2026-05-01 13:59 | 48.62497 | 14.97105 | 25390 ft | 397 kts | 122° |
| 2026-05-01 14:00 | 48.60813 | 15.00375 | 24714 ft | 392 kts | 122° |
| 2026-05-01 14:00 | 48.59800 | 15.02600 | 24285 ft | 384 kts | 115° |
| 2026-05-01 14:00 | 48.58643 | 15.06179 | 23608 ft | 373 kts | 105° |
| 2026-05-01 14:00 | 48.57906 | 15.09888 | 22859 ft | 364 kts | 99° |
| 2026-05-01 14:01 | 48.57277 | 15.13576 | 22098 ft | 361 kts | 99° |
| 2026-05-01 14:01 | 48.56646 | 15.17235 | 21405 ft | 358 kts | 99° |
| 2026-05-01 14:01 | 48.56019 | 15.20859 | 20824 ft | 355 kts | 100° |
| 2026-05-01 14:01 | 48.55401 | 15.24420 | 20413 ft | 347 kts | 100° |
| 2026-05-01 14:02 | 48.54793 | 15.27921 | 19895 ft | 343 kts | 100° |
| 2026-05-01 14:02 | 48.54199 | 15.31350 | 19367 ft | 340 kts | 100° |
| 2026-05-01 14:02 | 48.53601 | 15.34789 | 18830 ft | 337 kts | 100° |
| 2026-05-01 14:02 | 48.53004 | 15.38202 | 18245 ft | 335 kts | 100° |
| 2026-05-01 14:03 | 48.52413 | 15.41581 | 17709 ft | 331 kts | 100° |
| 2026-05-01 14:03 | 48.51947 | 15.44953 | 17211 ft | 324 kts | 92° |
| 2026-05-01 14:03 | 48.51776 | 15.48382 | 17114 ft | 331 kts | 90° |
| 2026-05-01 14:03 | 48.51593 | 15.51862 | 16998 ft | 333 kts | 90° |
| 2026-05-01 14:04 | 48.51396 | 15.55351 | 16841 ft | 333 kts | 91° |
| 2026-05-01 14:04 | 48.51191 | 15.58831 | 16684 ft | 332 kts | 91° |
| 2026-05-01 14:04 | 48.50989 | 15.62294 | 16523 ft | 331 kts | 91° |
| 2026-05-01 14:04 | 48.50790 | 15.65709 | 16367 ft | 330 kts | 91° |
| 2026-05-01 14:05 | 48.50589 | 15.69161 | 16213 ft | 330 kts | 91° |
| 2026-05-01 14:05 | 48.50387 | 15.72599 | 16051 ft | 329 kts | 91° |
| 2026-05-01 14:05 | 48.50184 | 15.76035 | 15899 ft | 328 kts | 91° |
| 2026-05-01 14:05 | 48.49981 | 15.79457 | 15743 ft | 327 kts | 91° |
| 2026-05-01 14:06 | 48.49777 | 15.82871 | 15587 ft | 326 kts | 91° |
| 2026-05-01 14:06 | 48.49575 | 15.86268 | 15433 ft | 325 kts | 91° |
| 2026-05-01 14:06 | 48.49373 | 15.89659 | 15279 ft | 324 kts | 91° |
| 2026-05-01 14:06 | 48.49172 | 15.93044 | 15124 ft | 323 kts | 91° |
| 2026-05-01 14:07 | 48.48972 | 15.96376 | 14970 ft | 323 kts | 91° |
| 2026-05-01 14:07 | 48.48767 | 15.99739 | 14819 ft | 322 kts | 91° |
| 2026-05-01 14:07 | 48.48561 | 16.03092 | 14661 ft | 321 kts | 91° |
| 2026-05-01 14:08 | 48.48153 | 16.09779 | 14360 ft | 319 kts | 91° |
| 2026-05-01 14:08 | 48.47978 | 16.13110 | 14208 ft | 318 kts | 90° |
| 2026-05-01 14:08 | 48.47846 | 16.16423 | 14042 ft | 317 kts | 89° |
| 2026-05-01 14:08 | 48.47732 | 16.19754 | 13888 ft | 317 kts | 89° |
| 2026-05-01 14:09 | 48.47622 | 16.23067 | 13730 ft | 316 kts | 89° |
| 2026-05-01 14:09 | 48.47509 | 16.26370 | 13576 ft | 315 kts | 89° |
| 2026-05-01 14:09 | 48.47388 | 16.29675 | 13421 ft | 315 kts | 89° |
| 2026-05-01 14:09 | 48.47262 | 16.32922 | 13272 ft | 314 kts | 89° |
| 2026-05-01 14:10 | 48.47130 | 16.36210 | 13118 ft | 314 kts | 89° |
| 2026-05-01 14:10 | 48.46999 | 16.39487 | 12968 ft | 313 kts | 89° |
| 2026-05-01 14:10 | 48.46868 | 16.42760 | 12813 ft | 312 kts | 89° |
| 2026-05-01 14:10 | 48.46734 | 16.46030 | 12660 ft | 312 kts | 89° |
| 2026-05-01 14:11 | 48.46595 | 16.49290 | 12507 ft | 311 kts | 90° |
| 2026-05-01 14:11 | 48.44909 | 16.55272 | 11457 ft | 322 kts | 127° |
| 2026-05-01 14:11 | 48.43128 | 16.57365 | 10961 ft | 330 kts | 147° |
| 2026-05-01 14:12 | 48.40990 | 16.58538 | 10649 ft | 330 kts | 160° |
| 2026-05-01 14:12 | 48.38801 | 16.59453 | 10375 ft | 320 kts | 160° |
| 2026-05-01 14:12 | 48.36685 | 16.60336 | 10093 ft | 311 kts | 160° |
| 2026-05-01 14:12 | 48.34624 | 16.61203 | 9792 ft | 304 kts | 160° |
| 2026-05-01 14:13 | 48.32602 | 16.62060 | 9505 ft | 300 kts | 160° |
| 2026-05-01 14:13 | 48.31283 | 16.62618 | 9316 ft | 299 kts | 160° |
| 2026-05-01 14:13 | 48.28601 | 16.63749 | 8928 ft | 297 kts | 161° |
| 2026-05-01 14:13 | 48.26637 | 16.64578 | 8643 ft | 295 kts | 161° |
| 2026-05-01 14:14 | 48.24663 | 16.65411 | 8366 ft | 294 kts | 161° |
| 2026-05-01 14:14 | 48.22697 | 16.66236 | 8093 ft | 292 kts | 161° |
| 2026-05-01 14:14 | 48.20740 | 16.67055 | 7803 ft | 291 kts | 162° |
| 2026-05-01 14:14 | 48.18790 | 16.67869 | 7528 ft | 290 kts | 162° |
| 2026-05-01 14:15 | 48.16845 | 16.68677 | 7257 ft | 289 kts | 162° |
| 2026-05-01 14:15 | 48.14901 | 16.69485 | 6992 ft | 288 kts | 163° |
| 2026-05-01 14:15 | 48.12976 | 16.70289 | 6768 ft | 286 kts | 163° |
| 2026-05-01 14:15 | 48.11054 | 16.71093 | 6566 ft | 286 kts | 163° |
| 2026-05-01 14:16 | 48.09142 | 16.71894 | 6356 ft | 283 kts | 163° |
| 2026-05-01 14:16 | 48.07266 | 16.72678 | 6146 ft | 276 kts | 163° |
| 2026-05-01 14:16 | 48.05433 | 16.73440 | 5937 ft | 269 kts | 163° |
| 2026-05-01 14:16 | 48.03670 | 16.74171 | 5737 ft | 262 kts | 163° |
| 2026-05-01 14:17 | 48.01933 | 16.74892 | 5531 ft | 256 kts | 163° |
| 2026-05-01 14:17 | 48.00236 | 16.75599 | 5339 ft | 249 kts | 163° |
| 2026-05-01 14:17 | 47.98590 | 16.76283 | 5210 ft | 243 kts | 163° |
| 2026-05-01 14:17 | 47.96988 | 16.76947 | 5084 ft | 235 kts | 163° |
| 2026-05-01 14:18 | 47.95433 | 16.77590 | 4948 ft | 228 kts | 163° |
| 2026-05-01 14:18 | 47.93921 | 16.78215 | 4820 ft | 222 kts | 163° |
| 2026-05-01 14:18 | 47.92454 | 16.78822 | 4688 ft | 215 kts | 163° |
| 2026-05-01 14:18 | 47.91505 | 16.79216 | 4599 ft | 212 kts | 163° |
| 2026-05-01 14:19 | 47.89621 | 16.79372 | 4418 ft | 205 kts | 201° |
| 2026-05-01 14:19 | 47.88526 | 16.78116 | 4294 ft | 199 kts | 240° |
| 2026-05-01 14:19 | 47.87965 | 16.76261 | 4184 ft | 196 kts | 254° |
| 2026-05-01 14:19 | 47.87541 | 16.74335 | 4043 ft | 194 kts | 261° |
| 2026-05-01 14:20 | 47.87667 | 16.72417 | 3920 ft | 185 kts | 297° |
| 2026-05-01 14:20 | 47.89170 | 16.69365 | 3661 ft | 183 kts | 307° |
| 2026-05-01 14:20 | 47.89890 | 16.67807 | 3495 ft | 181 kts | 316° |
| 2026-05-01 14:21 | 47.90903 | 16.66737 | 3451 ft | 179 kts | 338° |
| 2026-05-01 14:21 | 47.92087 | 16.66196 | 3401 ft | 176 kts | 346° |
| 2026-05-01 14:21 | 47.93278 | 16.65697 | 3350 ft | 178 kts | 346° |
| 2026-05-01 14:22 | 47.95662 | 16.64695 | 3246 ft | 180 kts | 346° |
| 2026-05-01 14:22 | 47.96858 | 16.64192 | 3087 ft | 177 kts | 346° |
| 2026-05-01 14:22 | 47.98029 | 16.63700 | 2844 ft | 176 kts | 346° |
| 2026-05-01 14:22 | 47.99199 | 16.63208 | 2604 ft | 175 kts | 346° |
| 2026-05-01 14:23 | 48.00352 | 16.62723 | 2374 ft | 169 kts | 346° |
| 2026-05-01 14:23 | 48.01447 | 16.62261 | 2165 ft | 159 kts | 345° |
| 2026-05-01 14:23 | 48.02497 | 16.61818 | 1965 ft | 148 kts | 346° |
| 2026-05-01 14:23 | 48.03411 | 16.61432 | 1766 ft | 129 kts | 346° |
| 2026-05-01 14:24 | 48.04239 | 16.61083 | 1599 ft | 121 kts | 346° |
| 2026-05-01 14:24 | 48.05038 | 16.60748 | 1435 ft | 117 kts | 346° |
| 2026-05-01 14:24 | 48.05825 | 16.60427 | 1259 ft | 116 kts | 345° |
| 2026-05-01 14:24 | 48.06605 | 16.60099 | 1113 ft | 117 kts | 346° |
| 2026-05-01 14:25 | 48.07385 | 16.59764 | 960 ft | 116 kts | 345° |
| 2026-05-01 14:25 | 48.08148 | 16.59437 | 800 ft | 117 kts | 346° |
| 2026-05-01 14:25 | 48.08925 | 16.59104 | 656 ft | 116 kts | 346° |
| 2026-05-01 14:25 | 48.09639 | 16.58809 | 612 ft | 90 kts | 344° |
| 2026-05-01 14:26 | 48.10094 | 16.58615 | 619 ft | 45 kts | 344° |
| 2026-05-01 14:26 | 48.10453 | 16.58283 | 610 ft | 17 kts | 300° |
| 2026-05-01 14:26 | 48.10547 | 16.58143 | 610 ft | 22 kts | 342° |
| 2026-05-01 14:27 | 48.10716 | 16.58073 | 610 ft | 21 kts | 343° |
| 2026-05-01 14:27 | 48.10862 | 16.58012 | 610 ft | 18 kts | 344° |
| 2026-05-01 14:27 | 48.11002 | 16.57953 | 614 ft | 14 kts | 344° |
| 2026-05-01 14:28 | 48.11164 | 16.57696 | 618 ft | 19 kts | 296° |
| 2026-05-01 14:28 | 48.11229 | 16.57496 | 616 ft | 24 kts | 296° |
| 2026-05-01 14:28 | 48.11297 | 16.57287 | 613 ft | 20 kts | 296° |
| 2026-05-01 14:28 | 48.11367 | 16.57072 | 613 ft | 25 kts | 296° |
| 2026-05-01 14:29 | 48.11437 | 16.56855 | 617 ft | 24 kts | 295° |
| 2026-05-01 14:29 | 48.11519 | 16.56600 | 614 ft | 30 kts | 296° |
| 2026-05-01 14:30 | 48.11715 | 16.56002 | 610 ft | 20 kts | 296° |
| 2026-05-01 14:30 | 48.11774 | 16.55823 | 612 ft | 15 kts | 296° |
| 2026-05-01 14:30 | 48.11827 | 16.55661 | 615 ft | 19 kts | 296° |
| 2026-05-01 14:31 | 48.11902 | 16.55444 | 621 ft | 8 kts | 336° |
| 2026-05-01 14:31 | 48.11956 | 16.55467 | 617 ft | 7 kts | 25° |
| 2026-05-01 14:31 | 48.12010 | 16.55506 | 615 ft | 9 kts | 26° |
| 2026-05-01 14:31 | 48.12063 | 16.55544 | 621 ft | 5 kts | 26° |
| 2026-05-01 14:32 | 48.12075 | 16.55565 | 615 ft | 3 kts | 75° |
| 2026-05-01 14:32 | 48.12068 | 16.55587 | 616 ft | 2 kts | 115° |
| 2026-05-01 14:32 | 48.12061 | 16.55610 | 620 ft | 3 kts | 115° |
| 2026-05-01 14:32 | 48.12053 | 16.55635 | 612 ft | 2 kts | 116° |
| 2026-05-01 14:33 | 48.12051 | 16.55639 | 612 ft | 0 kts | 116° |